Time;durP1;ratioP1;P1;durP2;ratioP2;P2;SDS_P1;SDS_P2;PMS_P1;PMS_P2;Temp;Humidity;BMP_temperature;BMP_pressure;BME280_temperature;BME280_humidity;BME280_pressure;Samples;Min_cycle;Max_cycle;Signal;HPM_P1;HPM_P2
2023/05/23 00:01:18;;;;;;;;;;;;;;;30.35;47.22;95914.84;5042858;28;19967;-58
2023/05/23 00:03:48;;;;;;;;;;;;;;;30.13;47.34;95916.06;5044386;28;20354;-60
2023/05/23 00:06:20;;;;;;;;;;;;;;;29.28;52.00;95919.72;5047189;28;19956;-60
2023/05/23 00:08:49;;;;;;;;;;;;;;;28.98;54.47;95908.94;5045865;28;19968;-59
2023/05/23 00:11:19;;;;;;;;;;;;;;;28.88;55.38;95919.81;5044517;28;20034;-60
2023/05/23 00:13:47;;;;;;;;;;;;;;;28.99;56.37;95918.69;5035398;28;19959;-58
2023/05/23 00:16:15;;;;;;;;;;;;;;;28.39;57.98;95921.22;5048915;28;19971;-58
2023/05/23 00:18:44;;;;;;;;;;;;;;;28.63;58.11;95924.16;5042366;28;20586;-58
2023/05/23 00:21:12;;;;;;;;;;;;;;;28.73;60.44;95917.91;5042369;28;19968;-59
2023/05/23 00:23:42;;;;;;;;;;;;;;;29.00;57.23;95918.44;5042992;28;19960;-58
2023/05/23 00:26:10;;;;;;;;;;;;;;;29.02;57.87;95910.84;5042829;28;19968;-60
2023/05/23 00:28:39;;;;;;;;;;;;;;;28.60;60.79;95919.31;5037246;28;19956;-56
2023/05/23 00:31:07;;;;;;;;;;;;;;;29.36;55.82;95915.63;5043954;28;19968;-57
2023/05/23 00:33:35;;;;;;;;;;;;;;;28.80;58.53;95918.44;5046245;28;20430;-58
2023/05/23 00:36:03;;;;;;;;;;;;;;;30.22;51.65;95913.59;5038100;28;19971;-59
2023/05/23 00:38:31;;;;;;;;;;;;;;;29.94;52.97;95918.66;5041006;28;19943;-58
2023/05/23 00:41:00;;;;;;;;;;;;;;;29.33;53.72;95921.63;5040986;28;19956;-59
2023/05/23 00:43:28;;;;;;;;;;;;;;;29.19;55.46;95913.25;5040791;28;19955;-55
2023/05/23 00:45:57;;;;;;;;;;;;;;;28.87;56.51;95916.25;5037888;28;19960;-56
2023/05/23 00:48:25;;;;;;;;;;;;;;;29.68;53.93;95920.69;5040230;28;19963;-59
2023/05/23 00:50:54;;;;;;;;;;;;;;;29.36;54.32;95918.34;5044297;28;19959;-57
2023/05/23 00:53:22;;;;;;;;;;;;;;;29.15;54.97;95919.50;5042128;28;19952;-59
2023/05/23 00:55:50;;;;;;;;;;;;;;;28.41;59.39;95931.78;5038560;28;19960;-56
2023/05/23 00:58:18;;;;;;;;;;;;;;;28.60;59.81;95922.81;5036941;28;19952;-58
2023/05/23 01:00:47;;;;;;;;;;;;;;;28.71;60.44;95929.06;5042907;28;20400;-60
2023/05/23 01:03:17;;;;;;;;;;;;;;;28.94;58.96;95926.84;5038310;28;19960;-60
2023/05/23 01:05:45;;;;;;;;;;;;;;;29.66;53.95;95930.19;5043795;28;19960;-61
2023/05/23 01:08:14;;;;;;;;;;;;;;;28.80;58.00;95938.28;5039908;28;19963;-60
2023/05/23 01:10:42;;;;;;;;;;;;;;;29.02;57.78;95929.84;5040811;28;19963;-58
2023/05/23 01:13:13;;;;;;;;;;;;;;;28.74;60.50;95927.69;5037379;28;19956;-60
2023/05/23 01:15:42;;;;;;;;;;;;;;;28.32;61.57;95926.88;5042831;28;19967;-59
2023/05/23 01:18:13;;;;;;;;;;;;;;;28.82;58.84;95924.44;5040272;28;20047;-56
2023/05/23 01:20:44;;;;;;;;;;;;;;;29.59;54.40;95933.22;5048586;28;19951;-54
2023/05/23 01:23:28;;;;;;;;;;;;;;;29.09;57.39;95929.56;5048115;28;19964;-59
2023/05/23 01:26:04;;;;;;;;;;;;;;;29.06;56.57;95930.13;5042536;28;19971;-60
2023/05/23 01:28:33;;;;;;;;;;;;;;;29.24;55.81;95926.78;5047608;28;19921;-58
2023/05/23 01:31:02;;;;;;;;;;;;;;;29.55;54.51;95932.94;5042941;28;19952;-56
2023/05/23 01:33:30;;;;;;;;;;;;;;;29.05;55.81;95926.59;5048986;28;20613;-57
2023/05/23 01:35:58;;;;;;;;;;;;;;;29.30;54.25;95936.56;5047415;28;19960;-55
2023/05/23 01:38:26;;;;;;;;;;;;;;;28.89;56.12;95933.09;5043074;28;19968;-55
2023/05/23 01:40:54;;;;;;;;;;;;;;;29.66;52.98;95938.34;5044830;28;20479;-60
2023/05/23 01:43:22;;;;;;;;;;;;;;;29.33;54.43;95930.56;5044344;28;19957;-58
2023/05/23 01:45:52;;;;;;;;;;;;;;;28.74;57.04;95943.97;5045081;28;20404;-59
2023/05/23 01:48:20;;;;;;;;;;;;;;;29.27;54.43;95939.81;5039346;28;19960;-60
2023/05/23 01:50:48;;;;;;;;;;;;;;;29.79;53.20;95941.28;5046060;28;19959;-58
2023/05/23 01:53:16;;;;;;;;;;;;;;;28.71;58.21;95950.75;5040926;28;19971;-58
2023/05/23 01:55:45;;;;;;;;;;;;;;;30.08;52.56;95947.94;5045880;28;20740;-56
2023/05/23 01:58:13;;;;;;;;;;;;;;;29.28;56.24;95956.94;5043252;28;20329;-58
2023/05/23 02:00:41;;;;;;;;;;;;;;;29.62;53.62;95961.75;5047622;28;19975;-55
2023/05/23 02:03:11;;;;;;;;;;;;;;;29.25;55.03;95955.59;5040923;28;19964;-58
2023/05/23 02:05:39;;;;;;;;;;;;;;;29.19;57.20;95956.69;5046875;28;19960;-58
2023/05/23 02:08:07;;;;;;;;;;;;;;;28.95;58.71;95956.44;5043103;28;19960;-58
2023/05/23 02:10:35;;;;;;;;;;;;;;;29.07;57.50;95956.16;5046944;28;19953;-59
2023/05/23 02:13:03;;;;;;;;;;;;;;;28.79;58.83;95955.63;5044329;28;19968;-58
2023/05/23 02:15:31;;;;;;;;;;;;;;;28.65;60.50;95965.41;5048930;28;19971;-59
2023/05/23 02:18:00;;;;;;;;;;;;;;;29.05;58.70;95959.16;5045496;28;19964;-59
2023/05/23 02:20:30;;;;;;;;;;;;;;;28.63;61.75;95968.41;5041298;28;19961;-58
2023/05/23 02:22:58;;;;;;;;;;;;;;;28.34;62.20;95964.56;5047267;28;20418;-58
2023/05/23 02:25:26;;;;;;;;;;;;;;;28.47;63.13;95966.78;5042864;28;19960;-56
2023/05/23 02:27:54;;;;;;;;;;;;;;;28.53;62.05;95968.41;5046452;28;19975;-55
2023/05/23 02:30:22;;;;;;;;;;;;;;;28.34;63.53;95961.84;5039464;28;20336;-58
2023/05/23 02:32:51;;;;;;;;;;;;;;;28.54;61.18;95967.31;5044730;28;19956;-59
2023/05/23 02:35:19;;;;;;;;;;;;;;;28.60;62.14;95963.53;5044194;28;19971;-59
2023/05/23 02:37:48;;;;;;;;;;;;;;;28.87;60.08;95959.69;5043283;28;20426;-57
2023/05/23 02:40:16;;;;;;;;;;;;;;;28.32;63.42;95969.41;5042687;28;19979;-58
2023/05/23 02:42:44;;;;;;;;;;;;;;;28.79;61.01;95966.50;5042560;28;19970;-58
2023/05/23 02:45:12;;;;;;;;;;;;;;;28.29;61.94;95967.28;5044982;28;20343;-60
2023/05/23 02:47:40;;;;;;;;;;;;;;;28.17;62.31;95967.50;5038739;28;19960;-60
2023/05/23 02:50:08;;;;;;;;;;;;;;;29.28;58.63;95959.66;5048415;28;20535;-59
2023/05/23 02:52:37;;;;;;;;;;;;;;;28.61;59.38;95976.00;5040681;28;19990;-60
2023/05/23 02:55:07;;;;;;;;;;;;;;;28.79;57.88;95969.19;5042445;28;19975;-59
2023/05/23 02:57:35;;;;;;;;;;;;;;;29.33;55.97;95970.50;5045613;28;20371;-59
2023/05/23 03:00:03;;;;;;;;;;;;;;;30.65;49.31;95976.41;5046428;28;19952;-60
2023/05/23 03:02:31;;;;;;;;;;;;;;;30.80;47.84;95984.47;5048552;28;20406;-57
2023/05/23 03:04:59;;;;;;;;;;;;;;;30.42;48.51;95986.06;5053035;28;20396;-57
2023/05/23 03:07:27;;;;;;;;;;;;;;;30.66;47.86;95978.84;5043786;28;20392;-58
2023/05/23 03:09:55;;;;;;;;;;;;;;;30.80;47.46;95986.38;5048708;28;19960;-59
2023/05/23 03:12:25;;;;;;;;;;;;;;;30.93;46.34;95988.44;5048252;28;20546;-57
2023/05/23 03:14:53;;;;;;;;;;;;;;;30.53;47.58;95986.84;5048544;28;19964;-60
2023/05/23 03:17:21;;;;;;;;;;;;;;;30.35;48.17;95985.59;5045837;28;19962;-57
2023/05/23 03:19:49;;;;;;;;;;;;;;;30.70;46.88;95987.25;5044455;28;19974;-58
2023/05/23 03:22:17;;;;;;;;;;;;;;;30.35;48.25;95989.16;5048001;28;20020;-60
2023/05/23 03:24:45;;;;;;;;;;;;;;;30.40;46.91;95980.13;5046523;28;19976;-58
2023/05/23 03:27:13;;;;;;;;;;;;;;;30.73;46.83;95978.53;5046517;28;19967;-58
2023/05/23 03:29:42;;;;;;;;;;;;;;;30.41;47.83;95973.56;5041923;28;19948;-58
2023/05/23 03:32:10;;;;;;;;;;;;;;;30.14;47.97;95976.72;5042030;28;20034;-57
2023/05/23 03:34:38;;;;;;;;;;;;;;;30.58;47.25;95979.44;5044316;28;20363;-58
2023/05/23 03:37:06;;;;;;;;;;;;;;;30.28;48.09;95985.91;5052454;28;19955;-59
2023/05/23 03:39:34;;;;;;;;;;;;;;;30.72;46.24;95974.97;5051111;28;19972;-59
2023/05/23 03:42:06;;;;;;;;;;;;;;;30.50;46.42;95980.06;5034488;28;20415;-60
2023/05/23 03:44:34;;;;;;;;;;;;;;;30.58;46.52;95984.88;5027662;28;20003;-58
2023/05/23 03:47:03;;;;;;;;;;;;;;;30.17;47.91;95982.41;5030551;28;19963;-59
2023/05/23 03:49:31;;;;;;;;;;;;;;;30.27;47.74;95987.81;5049476;28;19956;-60
2023/05/23 03:51:59;;;;;;;;;;;;;;;29.21;51.29;95987.09;5058375;28;19963;-56
2023/05/23 03:54:27;;;;;;;;;;;;;;;29.71;49.09;95990.78;5052903;28;20375;-59
2023/05/23 03:56:55;;;;;;;;;;;;;;;28.65;53.33;95995.25;5049733;28;19960;-62
2023/05/23 03:59:23;;;;;;;;;;;;;;;29.15;52.45;95992.81;5040085;28;19960;-56
2023/05/23 04:01:51;;;;;;;;;;;;;;;30.00;49.44;95992.81;5035051;28;20373;-60
2023/05/23 04:04:20;;;;;;;;;;;;;;;30.08;48.74;95986.00;5040487;28;19966;-57
2023/05/23 04:06:48;;;;;;;;;;;;;;;28.72;54.69;95993.09;5041171;28;19956;-60
2023/05/23 04:09:16;;;;;;;;;;;;;;;29.81;51.01;95995.38;5041040;28;19952;-60
2023/05/23 04:11:46;;;;;;;;;;;;;;;28.45;54.78;96008.81;5048524;28;20408;-60
2023/05/23 04:14:14;;;;;;;;;;;;;;;28.22;59.65;96007.38;5035176;28;19972;-57
2023/05/23 04:16:43;;;;;;;;;;;;;;;28.45;60.88;96004.19;5048080;28;19956;-58
2023/05/23 04:19:12;;;;;;;;;;;;;;;28.28;61.36;96006.31;5043723;28;19964;-57
2023/05/23 04:21:42;;;;;;;;;;;;;;;27.77;65.81;96006.97;5047714;28;19951;-57
2023/05/23 04:24:10;;;;;;;;;;;;;;;28.10;64.33;96007.63;5044561;28;20387;-58
2023/05/23 04:26:38;;;;;;;;;;;;;;;27.56;72.59;96007.91;5044489;28;19963;-59
2023/05/23 04:29:06;;;;;;;;;;;;;;;28.61;63.46;96013.16;5042723;28;19956;-59
2023/05/23 04:31:34;;;;;;;;;;;;;;;28.63;61.31;96013.69;5048091;28;19983;-59
2023/05/23 04:34:02;;;;;;;;;;;;;;;29.02;59.14;96024.06;5041239;28;19975;-59
2023/05/23 04:36:31;;;;;;;;;;;;;;;28.90;58.36;96018.88;5048587;28;19963;-59
2023/05/23 04:39:00;;;;;;;;;;;;;;;29.23;57.71;96024.84;5056658;28;19955;-57
2023/05/23 04:41:28;;;;;;;;;;;;;;;29.85;55.63;96023.63;5042618;28;19974;-59
2023/05/23 04:43:57;;;;;;;;;;;;;;;30.51;52.04;96030.66;5047189;28;19973;-61
2023/05/23 04:46:26;;;;;;;;;;;;;;;29.63;57.48;96032.13;5043509;28;20347;-60
2023/05/23 04:48:55;;;;;;;;;;;;;;;30.32;53.13;96037.84;5046788;28;19960;-59
2023/05/23 04:51:23;;;;;;;;;;;;;;;30.12;53.88;96038.75;5039368;28;19971;-58
2023/05/23 04:53:52;;;;;;;;;;;;;;;30.12;52.57;96031.41;5044841;28;19979;-59
2023/05/23 04:56:26;;;;;;;;;;;;;;;30.20;53.90;96032.75;5045536;28;19959;-59
2023/05/23 04:58:54;;;;;;;;;;;;;;;30.19;52.47;96033.84;5057832;28;19916;-59
2023/05/23 05:01:23;;;;;;;;;;;;;;;30.33;50.63;96026.69;5044427;28;19952;-59
2023/05/23 05:03:52;;;;;;;;;;;;;;;29.95;52.61;96029.03;5040590;28;19956;-59
2023/05/23 05:06:21;;;;;;;;;;;;;;;30.12;54.51;96031.41;5048208;28;19956;-57
2023/05/23 05:08:49;;;;;;;;;;;;;;;30.26;57.41;96027.00;5043633;28;19978;-60
2023/05/23 05:11:17;;;;;;;;;;;;;;;30.09;56.01;96028.44;5056890;28;19964;-60
2023/05/23 05:13:46;;;;;;;;;;;;;;;28.55;68.84;96035.94;5041913;28;19956;-59
2023/05/23 05:16:14;;;;;;;;;;;;;;;29.21;63.53;96032.44;5042946;28;19953;-60
2023/05/23 05:18:42;;;;;;;;;;;;;;;30.07;58.02;96031.41;5044010;28;19948;-60
2023/05/23 05:21:11;;;;;;;;;;;;;;;29.62;61.81;96041.38;5044467;28;19956;-58
2023/05/23 05:23:39;;;;;;;;;;;;;;;29.85;58.46;96036.41;5036935;28;19967;-58
2023/05/23 05:26:07;;;;;;;;;;;;;;;30.73;54.31;96038.41;5038526;28;19955;-59
2023/05/23 05:28:35;;;;;;;;;;;;;;;29.69;61.85;96043.78;5046803;28;20399;-57
2023/05/23 05:31:04;;;;;;;;;;;;;;;29.72;61.74;96051.41;5040315;28;19962;-58
2023/05/23 05:33:34;;;;;;;;;;;;;;;29.57;64.38;96049.50;5044247;28;19952;-59
2023/05/23 05:36:03;;;;;;;;;;;;;;;29.77;64.41;96052.22;5039959;28;19963;-59
2023/05/23 05:38:31;;;;;;;;;;;;;;;29.82;63.78;96051.38;5042292;28;20371;-60
2023/05/23 05:40:59;;;;;;;;;;;;;;;30.25;62.27;96049.84;5042692;28;19968;-58
2023/05/23 05:43:27;;;;;;;;;;;;;;;29.84;61.27;96056.53;5044686;28;19964;-58
2023/05/23 05:45:55;;;;;;;;;;;;;;;30.40;61.35;96056.31;5043672;28;20380;-59
2023/05/23 05:48:24;;;;;;;;;;;;;;;29.18;65.68;96044.69;5048181;28;19959;-59
2023/05/23 05:50:53;;;;;;;;;;;;;;;29.44;69.62;96055.50;5038077;28;20373;-59
2023/05/23 05:53:21;;;;;;;;;;;;;;;29.84;64.99;96051.91;5044151;28;19960;-60
2023/05/23 05:55:49;;;;;;;;;;;;;;;29.80;67.71;96054.38;5045308;28;19994;-61
2023/05/23 05:58:17;;;;;;;;;;;;;;;30.00;64.29;96049.94;5044654;28;19948;-60
2023/05/23 06:00:45;;;;;;;;;;;;;;;28.83;74.45;96061.75;5047431;28;19967;-61
2023/05/23 06:03:14;;;;;;;;;;;;;;;29.01;73.61;96055.00;5038038;28;19968;-57
2023/05/23 06:05:44;;;;;;;;;;;;;;;28.62;75.91;96053.59;5044155;28;19967;-58
2023/05/23 06:08:12;;;;;;;;;;;;;;;28.85;73.41;96056.88;5050855;28;19967;-58
2023/05/23 06:10:40;;;;;;;;;;;;;;;28.42;78.34;96071.72;5047357;28;19964;-58
2023/05/23 06:13:08;;;;;;;;;;;;;;;28.96;76.27;96069.34;5043750;28;19963;-60
2023/05/23 06:15:36;;;;;;;;;;;;;;;28.76;74.14;96059.28;5045713;28;19967;-60
2023/05/23 06:18:04;;;;;;;;;;;;;;;29.43;72.33;96067.47;5049804;28;19964;-60
2023/05/23 06:20:32;;;;;;;;;;;;;;;29.67;70.41;96063.09;5045086;28;19960;-60
2023/05/23 06:23:04;;;;;;;;;;;;;;;29.30;76.22;96066.94;5046405;28;19963;-61
2023/05/23 06:25:32;;;;;;;;;;;;;;;30.09;68.00;96069.22;5043680;28;20421;-60
2023/05/23 06:28:00;;;;;;;;;;;;;;;29.83;67.66;96066.56;5046653;28;20335;-60
2023/05/23 06:30:29;;;;;;;;;;;;;;;29.55;70.21;96066.06;5044871;28;19960;-60
2023/05/23 06:32:57;;;;;;;;;;;;;;;29.65;74.27;96067.19;5047904;28;19964;-59
2023/05/23 06:35:25;;;;;;;;;;;;;;;30.12;71.91;96076.81;5047825;28;19949;-59
2023/05/23 06:37:53;;;;;;;;;;;;;;;30.44;67.67;96068.25;5045378;28;19955;-58
2023/05/23 06:40:23;;;;;;;;;;;;;;;30.12;70.67;96071.38;5039810;28;19948;-60
2023/05/23 06:42:51;;;;;;;;;;;;;;;30.67;65.24;96075.75;5049975;28;19964;-59
2023/05/23 06:45:19;;;;;;;;;;;;;;;30.11;66.56;96086.06;5044253;28;19961;-59
2023/05/23 06:47:48;;;;;;;;;;;;;;;30.78;64.29;96086.59;5043992;28;19955;-59
2023/05/23 06:50:18;;;;;;;;;;;;;;;30.16;69.25;96083.31;5047981;28;20360;-59
2023/05/23 06:52:46;;;;;;;;;;;;;;;30.14;67.23;96078.16;5045214;28;20445;-60
2023/05/23 06:55:17;;;;;;;;;;;;;;;31.48;63.01;96080.88;5044453;28;19963;-61
2023/05/23 06:57:50;;;;;;;;;;;;;;;30.57;64.79;96089.41;5045103;28;19962;-60
2023/05/23 07:00:19;;;;;;;;;;;;;;;29.90;72.21;96086.13;5048147;28;19967;-60
2023/05/23 07:02:47;;;;;;;;;;;;;;;29.96;71.07;96089.66;5050363;28;19956;-60
2023/05/23 07:05:16;;;;;;;;;;;;;;;30.30;67.54;96095.25;5049495;28;19964;-60
2023/05/23 07:07:44;;;;;;;;;;;;;;;29.84;74.70;96095.41;5050255;28;19964;-60
2023/05/23 07:10:12;;;;;;;;;;;;;;;30.27;70.14;96091.19;5047061;28;19975;-59
2023/05/23 07:12:40;;;;;;;;;;;;;;;31.19;68.71;96098.81;5048475;28;19994;-58
2023/05/23 07:15:11;;;;;;;;;;;;;;;30.43;68.94;96097.38;5039960;28;19963;-60
2023/05/23 07:17:39;;;;;;;;;;;;;;;30.78;65.21;96098.28;5048245;28;19952;-61
2023/05/23 07:20:08;;;;;;;;;;;;;;;29.96;70.76;96101.34;5045195;28;19960;-59
2023/05/23 07:22:36;;;;;;;;;;;;;;;32.08;61.86;96090.34;5047255;28;19948;-60
2023/05/23 07:25:04;;;;;;;;;;;;;;;32.50;55.56;96085.22;5038895;28;19952;-61
2023/05/23 07:27:32;;;;;;;;;;;;;;;31.05;63.81;96105.19;5045165;28;19963;-60
2023/05/23 07:30:00;;;;;;;;;;;;;;;32.38;58.07;96096.50;5043291;28;19944;-61
2023/05/23 07:32:30;;;;;;;;;;;;;;;32.20;54.57;96100.03;5051665;28;19965;-60
2023/05/23 07:34:58;;;;;;;;;;;;;;;32.56;52.79;96084.84;5044301;28;20470;-60
2023/05/23 07:37:26;;;;;;;;;;;;;;;32.05;53.42;96098.31;5045176;28;20325;-61
2023/05/23 07:39:55;;;;;;;;;;;;;;;31.77;54.44;96097.22;5045536;28;19963;-60
2023/05/23 07:42:23;;;;;;;;;;;;;;;31.10;57.08;96103.22;5041935;28;19998;-61
2023/05/23 07:44:51;;;;;;;;;;;;;;;31.82;55.18;96097.16;5046201;28;20377;-60
2023/05/23 07:47:19;;;;;;;;;;;;;;;32.24;51.49;96104.59;5042639;28;19972;-61
2023/05/23 07:49:50;;;;;;;;;;;;;;;32.32;51.97;96100.44;5047764;28;19963;-60
2023/05/23 07:52:18;;;;;;;;;;;;;;;32.88;51.70;96107.06;5044315;28;19964;-57
2023/05/23 07:54:46;;;;;;;;;;;;;;;31.43;54.39;96106.28;5047788;28;19959;-59
2023/05/23 07:57:15;;;;;;;;;;;;;;;32.13;52.49;96097.66;5038333;28;19967;-60
2023/05/23 07:59:43;;;;;;;;;;;;;;;32.36;51.63;96102.28;5046752;28;19956;-60
2023/05/23 08:02:11;;;;;;;;;;;;;;;33.32;49.36;96095.75;5042012;28;19971;-61
2023/05/23 08:04:40;;;;;;;;;;;;;;;33.08;50.52;96113.06;5046378;28;19960;-61
2023/05/23 08:07:10;;;;;;;;;;;;;;;31.72;52.53;96113.63;5045615;28;19955;-61
2023/05/23 08:09:39;;;;;;;;;;;;;;;32.60;50.82;96112.38;5058885;28;19987;-61
2023/05/23 08:12:07;;;;;;;;;;;;;;;32.82;50.24;96112.59;5054656;28;19944;-59
2023/05/23 08:14:35;;;;;;;;;;;;;;;32.36;50.55;96113.19;5044871;28;19952;-59
2023/05/23 08:17:18;;;;;;;;;;;;;;;32.15;52.38;96106.38;5042820;28;20396;-59
2023/05/23 08:19:46;;;;;;;;;;;;;;;31.79;52.09;96114.09;5038105;28;19959;-61
2023/05/23 08:22:16;;;;;;;;;;;;;;;33.02;46.70;96106.03;5045411;28;19963;-60
2023/05/23 08:24:44;;;;;;;;;;;;;;;33.76;46.91;96106.22;5042650;28;19956;-59
2023/05/23 08:27:12;;;;;;;;;;;;;;;32.42;52.85;96124.91;5048496;28;19948;-61
2023/05/23 08:29:40;;;;;;;;;;;;;;;31.68;54.41;96119.66;5046274;28;19968;-61
2023/05/23 08:32:09;;;;;;;;;;;;;;;32.79;50.98;96117.81;5041084;28;20375;-59
2023/05/23 08:34:37;;;;;;;;;;;;;;;33.29;50.38;96124.47;5043931;28;19979;-60
2023/05/23 08:37:05;;;;;;;;;;;;;;;32.47;52.57;96129.47;5043202;28;19976;-58
2023/05/23 08:39:35;;;;;;;;;;;;;;;32.38;52.42;96123.81;5043016;28;19959;-60
2023/05/23 08:42:03;;;;;;;;;;;;;;;31.01;54.48;96132.19;5049431;28;19960;-60
2023/05/23 08:44:31;;;;;;;;;;;;;;;31.88;54.30;96136.94;5045853;28;19956;-59
2023/05/23 08:47:01;;;;;;;;;;;;;;;32.79;51.71;96120.56;5049334;28;19962;-55
2023/05/23 08:49:29;;;;;;;;;;;;;;;31.94;54.46;96126.81;5039383;28;20320;-60
2023/05/23 08:51:57;;;;;;;;;;;;;;;32.06;52.34;96124.47;5038372;28;19964;-59
2023/05/23 08:54:25;;;;;;;;;;;;;;;32.80;51.90;96128.47;5039505;28;19960;-59
2023/05/23 08:56:55;;;;;;;;;;;;;;;32.15;51.40;96131.72;5039519;28;19952;-59
2023/05/23 08:59:23;;;;;;;;;;;;;;;32.96;50.13;96137.28;5046091;28;19972;-59
2023/05/23 09:01:51;;;;;;;;;;;;;;;33.74;45.33;96138.50;5040334;28;19963;-59
2023/05/23 09:04:19;;;;;;;;;;;;;;;34.28;47.27;96127.94;5043167;28;19971;-58
2023/05/23 09:06:47;;;;;;;;;;;;;;;33.06;48.66;96133.59;5039734;28;19959;-59
2023/05/23 09:09:16;;;;;;;;;;;;;;;32.84;47.88;96129.50;5042369;28;19960;-58
2023/05/23 09:11:44;;;;;;;;;;;;;;;32.70;50.33;96136.00;5046348;28;19960;-57
2023/05/23 09:14:16;;;;;;;;;;;;;;;32.34;49.83;96137.22;5039613;28;20412;-60
2023/05/23 09:16:46;;;;;;;;;;;;;;;32.60;49.93;96131.50;5045154;28;20012;-59
2023/05/23 09:19:14;;;;;;;;;;;;;;;33.92;45.13;96134.06;5039786;28;20400;-59
2023/05/23 09:21:43;;;;;;;;;;;;;;;34.12;45.87;96138.38;5042118;28;19964;-56
2023/05/23 09:24:11;;;;;;;;;;;;;;;34.80;44.42;96141.41;5040542;28;19967;-59
2023/05/23 09:26:39;;;;;;;;;;;;;;;34.02;45.39;96146.78;5049308;28;19964;-61
2023/05/23 09:29:07;;;;;;;;;;;;;;;33.83;47.29;96143.28;5045468;28;19963;-58
2023/05/23 09:31:36;;;;;;;;;;;;;;;35.43;43.34;96145.97;5044596;28;19964;-58
2023/05/23 09:34:05;;;;;;;;;;;;;;;34.16;44.96;96144.06;5044219;28;19967;-59
2023/05/23 09:36:35;;;;;;;;;;;;;;;33.27;46.62;96143.09;5043823;28;20355;-60
2023/05/23 09:39:04;;;;;;;;;;;;;;;33.39;48.72;96148.09;5045561;28;19960;-59
2023/05/23 09:41:33;;;;;;;;;;;;;;;33.78;46.11;96152.38;5048081;28;19972;-58
2023/05/23 09:44:05;;;;;;;;;;;;;;;34.40;44.48;96152.88;5050146;28;19960;-60
2023/05/23 09:46:34;;;;;;;;;;;;;;;32.94;45.72;96160.53;5038708;28;19968;-61
2023/05/23 09:49:09;;;;;;;;;;;;;;;33.24;47.37;96157.38;5044350;28;19963;-59
2023/05/23 09:51:37;;;;;;;;;;;;;;;32.87;48.92;96154.63;5045650;28;19975;-60
2023/05/23 09:54:05;;;;;;;;;;;;;;;33.07;48.96;96157.91;5046038;28;19960;-58
2023/05/23 09:56:34;;;;;;;;;;;;;;;33.30;48.30;96147.97;5040385;28;20683;-61
2023/05/23 09:59:02;;;;;;;;;;;;;;;32.78;49.27;96146.25;5046575;28;20404;-58
2023/05/23 10:01:30;;;;;;;;;;;;;;;32.99;48.74;96147.63;5048466;28;20427;-59
2023/05/23 10:03:58;;;;;;;;;;;;;;;32.68;46.07;96151.84;5049049;28;19952;-60
2023/05/23 10:06:29;;;;;;;;;;;;;;;33.07;48.20;96151.59;5048361;28;19972;-57
2023/05/23 10:08:57;;;;;;;;;;;;;;;32.59;50.02;96157.19;5045725;28;20046;-58
2023/05/23 10:11:40;;;;;;;;;;;;;;;33.25;47.74;96155.44;5042569;28;20333;-58
2023/05/23 10:14:09;;;;;;;;;;;;;;;34.09;44.62;96143.66;5043871;28;20002;-60
2023/05/23 10:16:39;;;;;;;;;;;;;;;34.78;44.66;96147.19;5048469;28;19956;-61
2023/05/23 10:19:10;;;;;;;;;;;;;;;34.90;42.21;96150.22;5047056;28;19952;-57
2023/05/23 10:21:40;;;;;;;;;;;;;;;34.17;45.02;96154.72;5044342;28;19960;-58
2023/05/23 10:24:11;;;;;;;;;;;;;;;32.71;45.32;96148.53;5051635;28;19956;-59
2023/05/23 10:26:39;;;;;;;;;;;;;;;33.99;44.32;96144.63;5042534;28;19980;-55
2023/05/23 10:29:07;;;;;;;;;;;;;;;34.94;41.60;96143.00;5050692;28;19960;-61
2023/05/23 10:31:35;;;;;;;;;;;;;;;33.83;44.11;96144.09;5037396;28;19963;-60
2023/05/23 10:34:05;;;;;;;;;;;;;;;33.99;43.26;96137.22;5048753;28;19960;-60
2023/05/23 10:36:33;;;;;;;;;;;;;;;34.01;43.63;96135.03;5042572;28;19992;-59
2023/05/23 10:39:04;;;;;;;;;;;;;;;33.49;43.55;96133.50;5051218;28;19967;-60
2023/05/23 10:41:34;;;;;;;;;;;;;;;33.88;45.20;96138.53;5050727;28;19970;-61
2023/05/23 10:44:02;;;;;;;;;;;;;;;33.94;42.77;96128.31;5049541;28;20431;-60
2023/05/23 10:46:45;;;;;;;;;;;;;;;34.44;42.06;96123.75;5043679;28;19967;-60
2023/05/23 10:49:13;;;;;;;;;;;;;;;32.98;42.32;96121.41;5050587;28;19960;-60
2023/05/23 10:51:41;;;;;;;;;;;;;;;32.72;43.82;96122.84;5044527;28;19967;-59
2023/05/23 10:54:12;;;;;;;;;;;;;;;34.47;41.05;96119.59;5040174;28;20435;-57
2023/05/23 10:56:40;;;;;;;;;;;;;;;33.40;42.39;96118.84;5047499;28;20412;-60
2023/05/23 10:59:09;;;;;;;;;;;;;;;33.37;42.72;96120.25;5041494;28;19964;-59
2023/05/23 11:01:39;;;;;;;;;;;;;;;34.22;39.87;96115.47;5045712;28;20336;-59
2023/05/23 11:04:07;;;;;;;;;;;;;;;34.12;40.74;96115.69;5049531;28;20407;-60
2023/05/23 11:06:38;;;;;;;;;;;;;;;34.13;41.28;96118.09;5048774;28;19966;-60
2023/05/23 11:09:06;;;;;;;;;;;;;;;35.13;41.14;96115.44;5046008;28;19968;-60
2023/05/23 11:11:53;;;;;;;;;;;;;;;35.89;39.82;96114.66;5041009;28;19955;-58
2023/05/23 11:14:32;;;;;;;;;;;;;;;35.37;38.39;96117.88;5039187;28;19976;-60
2023/05/23 11:17:00;;;;;;;;;;;;;;;35.26;39.44;96124.72;5036626;28;19964;-58
2023/05/23 11:19:28;;;;;;;;;;;;;;;34.02;41.61;96117.50;5048696;28;20423;-60
2023/05/23 11:21:58;;;;;;;;;;;;;;;35.86;39.18;96112.56;5042230;28;19964;-59
2023/05/23 11:24:40;;;;;;;;;;;;;;;35.10;39.13;96107.03;5046797;28;20336;-59
2023/05/23 11:27:11;;;;;;;;;;;;;;;33.39;41.25;96115.31;5043701;28;19971;-59
2023/05/23 11:29:40;;;;;;;;;;;;;;;33.72;41.71;96102.44;5043044;28;19960;-60
2023/05/23 11:32:12;;;;;;;;;;;;;;;33.73;41.77;96108.72;5045188;28;19952;-60
2023/05/23 11:34:44;;;;;;;;;;;;;;;33.90;41.96;96108.16;5049667;28;19963;-60
2023/05/23 11:37:12;;;;;;;;;;;;;;;34.87;40.41;96106.97;5047489;28;19966;-60
2023/05/23 11:39:40;;;;;;;;;;;;;;;35.73;37.18;96111.50;5045842;28;19956;-60
2023/05/23 11:42:08;;;;;;;;;;;;;;;35.64;38.41;96103.22;5045171;28;19972;-61
2023/05/23 11:44:37;;;;;;;;;;;;;;;35.84;38.56;96104.63;5052879;28;19924;-60
2023/05/23 11:47:07;;;;;;;;;;;;;;;34.50;39.25;96091.63;5042370;28;20019;-61
2023/05/23 11:49:36;;;;;;;;;;;;;;;35.35;36.84;96097.38;5047886;28;19982;-60
2023/05/23 11:52:05;;;;;;;;;;;;;;;35.84;37.51;96099.13;5056624;28;19956;-60
2023/05/23 11:54:33;;;;;;;;;;;;;;;35.32;38.41;96100.75;5044113;28;19964;-60
2023/05/23 11:57:02;;;;;;;;;;;;;;;35.39;37.54;96093.69;5055413;28;19948;-61
2023/05/23 11:59:30;;;;;;;;;;;;;;;36.94;38.11;96083.63;5044867;28;19960;-61
2023/05/23 12:01:58;;;;;;;;;;;;;;;34.10;38.78;96098.75;5032754;28;20209;-61
2023/05/23 12:04:27;;;;;;;;;;;;;;;35.02;35.91;96108.59;5046707;28;19960;-59
2023/05/23 12:06:56;;;;;;;;;;;;;;;36.52;36.20;96094.25;5040727;28;19956;-61
2023/05/23 12:09:24;;;;;;;;;;;;;;;36.10;35.27;96109.47;5046673;28;20376;-60
2023/05/23 12:11:52;;;;;;;;;;;;;;;36.50;36.03;96104.75;5035839;28;19967;-61
2023/05/23 12:14:20;;;;;;;;;;;;;;;35.92;37.99;96110.47;5048072;28;19947;-59
2023/05/23 12:16:49;;;;;;;;;;;;;;;35.75;36.26;96111.19;5035408;28;19959;-60
2023/05/23 12:19:17;;;;;;;;;;;;;;;35.78;38.87;96105.06;5047122;28;20066;-61
2023/05/23 12:21:47;;;;;;;;;;;;;;;35.52;35.53;96118.66;5043420;28;19966;-59
2023/05/23 12:24:16;;;;;;;;;;;;;;;35.20;35.55;96115.00;5045149;28;19975;-61
2023/05/23 12:26:50;;;;;;;;;;;;;;;35.67;34.49;96105.34;5040041;28;19968;-59
2023/05/23 12:29:19;;;;;;;;;;;;;;;36.00;34.34;96109.72;5044492;28;19959;-61
2023/05/23 12:31:51;;;;;;;;;;;;;;;35.17;36.18;96108.22;5042693;28;20374;-61
2023/05/23 12:34:22;;;;;;;;;;;;;;;35.68;36.17;96103.41;5041628;28;20344;-60
2023/05/23 12:36:54;;;;;;;;;;;;;;;36.10;35.23;96107.53;5043566;28;19968;-58
2023/05/23 12:39:43;;;;;;;;;;;;;;;35.69;35.02;96118.75;5035329;28;19960;-57
2023/05/23 12:42:11;;;;;;;;;;;;;;;35.56;35.34;96112.22;5037967;28;19956;-59
2023/05/23 12:44:40;;;;;;;;;;;;;;;35.16;36.20;96109.34;5038977;28;19956;-61
2023/05/23 12:47:09;;;;;;;;;;;;;;;34.36;36.25;96115.47;5037329;28;19971;-58
2023/05/23 12:49:40;;;;;;;;;;;;;;;35.33;35.81;96119.63;5044560;28;20375;-64
2023/05/23 12:52:11;;;;;;;;;;;;;;;35.96;35.99;96117.78;5040527;28;20460;-59
2023/05/23 12:54:39;;;;;;;;;;;;;;;35.22;36.74;96117.44;5042916;28;20697;-59
2023/05/23 12:57:15;;;;;;;;;;;;;;;35.86;34.67;96116.09;5040699;28;19952;-60